createdAt,value
2023-05-10T00:00:31.386Z,15.20
2023-05-10T00:01:31.389Z,15.80
2023-05-10T00:02:31.397Z,14.70
2023-05-10T00:03:31.455Z,14.80
2023-05-10T00:04:31.366Z,14.80
2023-05-10T00:05:31.333Z,15.60
2023-05-10T00:06:31.332Z,14.40
2023-05-10T00:07:31.312Z,14.60
2023-05-10T00:08:31.344Z,15.70
2023-05-10T00:09:31.300Z,14.70
2023-05-10T00:10:31.293Z,14.60
2023-05-10T00:11:31.364Z,14.70
2023-05-10T00:12:32.244Z,14.90
2023-05-10T00:13:31.421Z,15.20
2023-05-10T00:14:31.249Z,14.80
2023-05-10T00:15:31.245Z,15.50
2023-05-10T00:16:32.267Z,15.90
2023-05-10T00:17:31.239Z,16.40
2023-05-10T00:18:31.200Z,16.20
2023-05-10T00:19:31.182Z,16.80
2023-05-10T00:20:31.476Z,16.20
2023-05-10T00:21:31.150Z,16.40
2023-05-10T00:22:31.203Z,16.40
2023-05-10T00:23:31.135Z,16.60
2023-05-10T00:24:31.138Z,17.20
2023-05-10T00:25:31.116Z,17.30
2023-05-10T00:26:31.084Z,18.10
2023-05-10T00:27:31.105Z,16.70
2023-05-10T00:28:31.103Z,17.60
2023-05-10T00:29:31.096Z,18.00
2023-05-10T00:30:31.245Z,17.80
2023-05-10T00:31:31.119Z,17.50
2023-05-10T00:32:31.068Z,18.10
2023-05-10T00:33:31.040Z,19.60
2023-05-10T00:34:31.088Z,20.20
2023-05-10T00:35:30.997Z,20.10
2023-05-10T00:36:31.000Z,19.00
2023-05-10T00:37:30.995Z,20.10
2023-05-10T00:38:31.106Z,20.90
2023-05-10T00:39:31.592Z,21.50
2023-05-10T00:40:31.240Z,21.00
2023-05-10T00:41:30.939Z,22.70
2023-05-10T00:42:31.305Z,20.00
2023-05-10T00:43:30.918Z,23.60
2023-05-10T00:44:30.936Z,21.60
2023-05-10T00:45:30.928Z,25.10
2023-05-10T00:46:31.046Z,21.40
2023-05-10T00:47:30.928Z,24.40
2023-05-10T00:48:31.087Z,23.60
2023-05-10T00:49:30.856Z,21.90
2023-05-10T00:50:30.877Z,23.40
2023-05-10T00:51:30.842Z,22.50
2023-05-10T00:52:30.901Z,25.50
2023-05-10T00:53:30.835Z,23.90
2023-05-10T00:54:30.818Z,26.40
2023-05-10T00:55:30.900Z,27.70
2023-05-10T00:56:30.888Z,27.80
2023-05-10T00:57:30.776Z,26.60
2023-05-10T00:58:30.816Z,30.30
2023-05-10T00:59:30.743Z,31.00
2023-05-10T01:00:30.749Z,30.90
2023-05-10T01:01:30.807Z,29.80
2023-05-10T01:02:30.869Z,27.70
2023-05-10T01:03:30.739Z,33.50
2023-05-10T01:04:30.723Z,33.80
2023-05-10T01:05:30.679Z,36.40
2023-05-10T01:06:31.093Z,37.70
2023-05-10T01:07:30.693Z,39.60
2023-05-10T01:08:30.686Z,39.30
2023-05-10T01:09:30.659Z,41.90
2023-05-10T01:10:30.634Z,42.40
2023-05-10T01:11:30.634Z,37.20
2023-05-10T01:12:30.718Z,48.00
2023-05-10T01:13:30.740Z,50.50
2023-05-10T01:14:31.638Z,54.30
2023-05-10T01:15:30.925Z,60.60
2023-05-10T01:16:30.650Z,52.00
2023-05-10T01:17:30.609Z,49.50
2023-05-10T01:18:30.580Z,40.20
2023-05-10T01:19:30.558Z,52.30
2023-05-10T01:20:30.562Z,75.50
2023-05-10T01:21:30.599Z,51.80
2023-05-10T01:22:30.570Z,102.60
2023-05-10T01:23:30.507Z,125.70
2023-05-10T01:24:30.476Z,51.30
2023-05-10T01:25:30.517Z,103.60
2023-05-10T01:26:30.476Z,90.90
2023-05-10T01:27:30.485Z,63.20
2023-05-10T01:28:30.447Z,49.60
2023-05-10T01:29:30.417Z,60.10
2023-05-10T01:30:30.418Z,211.60
2023-05-10T01:31:30.473Z,457.10
2023-05-10T01:32:30.440Z,103.40
2023-05-10T01:33:30.403Z,57.30
2023-05-10T01:34:30.409Z,61.80
2023-05-10T01:35:30.348Z,106.90
2023-05-10T01:36:30.385Z,46.80
2023-05-10T01:37:30.340Z,51.40
2023-05-10T01:38:30.375Z,42.80
2023-05-10T01:39:30.322Z,52.00
2023-05-10T01:40:30.315Z,75.80
2023-05-10T01:41:30.316Z,67.00
2023-05-10T01:42:30.278Z,54.00
2023-05-10T01:43:30.301Z,53.80
2023-05-10T01:44:30.286Z,43.50
2023-05-10T01:45:30.249Z,42.50
2023-05-10T01:46:30.275Z,49.00
2023-05-10T01:47:30.253Z,54.20
2023-05-10T01:48:30.246Z,51.80
2023-05-10T01:49:30.232Z,49.00
2023-05-10T01:50:30.186Z,49.30
2023-05-10T01:51:30.207Z,52.90
2023-05-10T01:52:30.166Z,48.40
2023-05-10T01:53:30.193Z,37.80
2023-05-10T01:54:30.241Z,31.80
2023-05-10T01:55:30.183Z,27.60
2023-05-10T01:56:30.168Z,29.40
2023-05-10T01:57:30.102Z,30.70
2023-05-10T01:58:30.109Z,28.60
2023-05-10T01:59:30.169Z,32.20
2023-05-10T02:00:30.190Z,29.70
2023-05-10T02:01:30.781Z,29.90
2023-05-10T02:02:30.075Z,28.50
2023-05-10T02:03:30.114Z,25.30
2023-05-10T02:04:30.068Z,25.10
2023-05-10T02:05:30.059Z,27.60
2023-05-10T02:06:29.992Z,26.50
2023-05-10T02:07:30.017Z,25.90
2023-05-10T02:08:30.008Z,24.30
2023-05-10T02:09:29.995Z,26.90
2023-05-10T02:10:30.649Z,26.90
2023-05-10T02:11:29.964Z,22.10
2023-05-10T02:12:29.978Z,26.30
2023-05-10T02:13:30.026Z,24.30
2023-05-10T02:14:29.931Z,23.90
2023-05-10T02:15:29.950Z,20.80
2023-05-10T02:16:29.935Z,26.20
2023-05-10T02:17:29.884Z,22.60
2023-05-10T02:18:29.876Z,25.60
2023-05-10T02:19:29.869Z,17.20
2023-05-10T02:20:29.882Z,17.10
2023-05-10T02:21:29.897Z,21.50
2023-05-10T02:22:29.840Z,24.90
2023-05-10T02:23:29.828Z,20.30
2023-05-10T02:24:29.799Z,20.10
2023-05-10T02:25:29.833Z,23.80
2023-05-10T02:26:29.843Z,23.20
2023-05-10T02:27:29.775Z,20.00
2023-05-10T02:28:30.765Z,23.70
2023-05-10T02:29:29.770Z,26.10
2023-05-10T02:30:29.780Z,27.20
2023-05-10T02:31:29.802Z,27.20
2023-05-10T02:32:29.757Z,26.60
2023-05-10T02:33:29.702Z,23.00
2023-05-10T02:34:29.689Z,27.10
2023-05-10T02:35:29.686Z,46.10
2023-05-10T02:36:29.721Z,37.60
2023-05-10T02:37:29.694Z,63.10
2023-05-10T02:38:29.646Z,81.80
2023-05-10T02:39:29.714Z,253.00
2023-05-10T02:40:29.657Z,446.50
2023-05-10T02:41:29.647Z,337.60
2023-05-10T02:42:29.670Z,387.90
2023-05-10T02:43:29.607Z,189.90
2023-05-10T02:44:29.625Z,562.40
2023-05-10T02:45:29.567Z,276.20
2023-05-10T02:46:29.631Z,197.80
2023-05-10T02:47:29.615Z,22.00
2023-05-10T02:48:29.607Z,7.50
2023-05-10T02:49:29.532Z,15.90
2023-05-10T02:50:29.557Z,14.40
2023-05-10T02:51:29.507Z,15.60
2023-05-10T02:52:29.503Z,6.60
2023-05-10T02:53:29.586Z,6.60
2023-05-10T02:54:29.475Z,7.70
2023-05-10T02:55:29.482Z,13.00
2023-05-10T02:56:29.493Z,8.40
2023-05-10T02:57:29.479Z,7.30
2023-05-10T02:58:29.433Z,5.20
2023-05-10T02:59:29.444Z,3.70
2023-05-10T03:00:29.453Z,4.90
2023-05-10T03:01:29.442Z,4.50
2023-05-10T03:02:29.414Z,3.00
2023-05-10T03:03:29.413Z,3.70
2023-05-10T03:04:29.460Z,3.40
2023-05-10T03:05:29.379Z,3.60
2023-05-10T03:06:29.341Z,3.90
2023-05-10T03:07:29.357Z,3.60
2023-05-10T03:08:29.308Z,4.00
2023-05-10T03:09:29.378Z,4.00
2023-05-10T03:10:29.316Z,4.00
2023-05-10T03:11:29.292Z,4.10
2023-05-10T03:12:29.296Z,5.10
2023-05-10T03:13:29.478Z,4.70
2023-05-10T03:14:29.276Z,4.50
2023-05-10T03:15:29.245Z,5.10
2023-05-10T03:16:29.298Z,5.80
2023-05-10T03:17:29.278Z,5.10
2023-05-10T03:18:29.243Z,5.30
2023-05-10T03:19:29.263Z,5.20
2023-05-10T03:20:29.203Z,5.30
2023-05-10T03:21:29.179Z,5.70
2023-05-10T03:22:29.162Z,5.70
2023-05-10T03:23:29.197Z,4.80
2023-05-10T03:24:29.151Z,4.70
2023-05-10T03:25:29.151Z,4.20
2023-05-10T03:26:30.133Z,2.90
2023-05-10T03:27:29.103Z,3.60
2023-05-10T03:28:29.090Z,4.10
2023-05-10T03:29:29.128Z,3.50
2023-05-10T03:30:29.124Z,3.40
2023-05-10T03:31:29.089Z,4.40
2023-05-10T03:32:29.079Z,3.30
2023-05-10T03:33:29.037Z,2.90
2023-05-10T03:34:29.010Z,3.90
2023-05-10T03:35:29.085Z,2.90
2023-05-10T03:36:29.011Z,4.40
2023-05-10T03:37:29.015Z,2.80
2023-05-10T03:38:30.465Z,2.70
2023-05-10T03:39:28.982Z,2.60
2023-05-10T03:40:28.958Z,2.70
2023-05-10T03:41:28.989Z,2.20
2023-05-10T03:42:28.955Z,2.40
2023-05-10T03:43:28.930Z,2.50
2023-05-10T03:44:28.941Z,2.40
2023-05-10T03:45:28.910Z,2.40
2023-05-10T03:46:29.088Z,2.50
2023-05-10T03:47:28.947Z,2.30
2023-05-10T03:48:28.905Z,2.10
2023-05-10T03:49:28.849Z,2.20
2023-05-10T03:50:28.873Z,2.40
2023-05-10T03:51:28.895Z,2.40
2023-05-10T03:52:28.841Z,2.30
2023-05-10T03:53:28.825Z,2.30
2023-05-10T03:54:28.848Z,2.20
2023-05-10T03:55:28.803Z,2.30
2023-05-10T03:56:28.796Z,2.50
2023-05-10T03:57:28.830Z,2.40
2023-05-10T03:58:28.800Z,2.50
2023-05-10T03:59:28.759Z,2.50
2023-05-10T04:00:28.876Z,2.70
2023-05-10T04:01:28.740Z,2.80
2023-05-10T04:02:28.805Z,2.70
2023-05-10T04:03:28.853Z,2.50
2023-05-10T04:04:28.712Z,3.00
2023-05-10T04:05:28.703Z,3.30
2023-05-10T04:06:28.724Z,3.00
2023-05-10T04:07:28.713Z,3.40
2023-05-10T04:08:28.654Z,2.80
2023-05-10T04:09:28.685Z,2.80
2023-05-10T04:10:28.633Z,3.00
2023-05-10T04:11:28.654Z,2.80
2023-05-10T04:12:28.647Z,3.80
2023-05-10T04:13:28.683Z,2.90
2023-05-10T04:14:28.614Z,3.00
2023-05-10T04:15:28.569Z,3.10
2023-05-10T04:16:28.559Z,3.00
2023-05-10T04:17:28.638Z,3.00
2023-05-10T04:18:28.590Z,3.10
2023-05-10T04:19:28.531Z,3.10
2023-05-10T04:20:28.543Z,2.90
2023-05-10T04:21:28.513Z,3.20
2023-05-10T04:22:28.492Z,3.00
2023-05-10T04:23:28.536Z,3.00
2023-05-10T04:24:28.476Z,3.00
2023-05-10T04:25:28.476Z,3.00
2023-05-10T04:26:28.455Z,3.00
2023-05-10T04:27:28.456Z,3.40
2023-05-10T04:28:29.277Z,5.60
2023-05-10T04:29:28.418Z,3.70
2023-05-10T04:30:28.404Z,7.00
2023-05-10T04:31:28.444Z,4.90
2023-05-10T04:32:28.471Z,3.60
2023-05-10T04:33:28.375Z,4.00
2023-05-10T04:34:28.385Z,3.50
2023-05-10T04:35:28.361Z,4.50
2023-05-10T04:36:28.342Z,3.00
2023-05-10T04:37:28.328Z,2.90
2023-05-10T04:38:28.338Z,2.80
2023-05-10T04:39:28.356Z,3.30
2023-05-10T04:40:28.287Z,3.00
2023-05-10T04:41:28.306Z,2.70
2023-05-10T04:42:28.282Z,2.80
2023-05-10T04:43:28.279Z,2.10
2023-05-10T04:44:28.349Z,2.80
2023-05-10T04:45:28.249Z,4.50
2023-05-10T04:46:28.298Z,2.40
2023-05-10T04:47:28.242Z,2.40
2023-05-10T04:48:28.215Z,2.60
2023-05-10T04:49:28.244Z,3.00
2023-05-10T04:50:28.229Z,2.80
2023-05-10T04:51:28.461Z,4.00
2023-05-10T04:52:28.223Z,2.40
2023-05-10T04:53:28.144Z,2.60
2023-05-10T04:54:28.141Z,2.40
2023-05-10T04:55:28.577Z,3.70
2023-05-10T04:56:28.120Z,2.40
2023-05-10T04:57:28.116Z,1.80
2023-05-10T04:58:28.104Z,3.70
2023-05-10T04:59:28.075Z,2.50
2023-05-10T05:00:28.220Z,3.00
2023-05-10T05:01:28.094Z,2.70
2023-05-10T05:02:28.116Z,1.90
2023-05-10T05:03:28.197Z,3.80
2023-05-10T05:04:28.404Z,2.20
2023-05-10T05:05:28.005Z,2.80
2023-05-10T05:06:29.046Z,3.40
2023-05-10T05:07:28.001Z,1.90
2023-05-10T05:08:28.005Z,1.70
2023-05-10T05:09:28.025Z,3.20
2023-05-10T05:10:27.976Z,1.20
2023-05-10T05:11:28.012Z,1.10
2023-05-10T05:12:27.925Z,2.20
2023-05-10T05:13:28.016Z,2.30
2023-05-10T05:14:27.923Z,2.50
2023-05-10T05:15:27.900Z,1.40
2023-05-10T05:16:27.994Z,2.40
2023-05-10T05:17:27.931Z,2.10
2023-05-10T05:18:27.864Z,1.80
2023-05-10T05:19:27.853Z,2.00
2023-05-10T05:20:27.961Z,1.50
2023-05-10T05:21:27.904Z,2.10
2023-05-10T05:22:27.814Z,2.20
2023-05-10T05:23:27.827Z,2.00
2023-05-10T05:24:27.811Z,2.90
2023-05-10T05:25:27.792Z,1.40
2023-05-10T05:26:27.831Z,2.80
2023-05-10T05:27:27.929Z,2.80
2023-05-10T05:28:27.758Z,2.60
2023-05-10T05:29:27.799Z,3.00
2023-05-10T05:30:27.740Z,3.40
2023-05-10T05:31:27.779Z,3.70
2023-05-10T05:32:27.765Z,1.60
2023-05-10T05:33:27.703Z,2.40
2023-05-10T05:34:27.713Z,2.70
2023-05-10T05:35:27.709Z,2.00
2023-05-10T05:36:27.667Z,1.70
2023-05-10T05:37:27.786Z,1.70
2023-05-10T05:38:27.646Z,2.70
2023-05-10T05:39:27.665Z,3.40
2023-05-10T05:40:28.615Z,2.70
2023-05-10T05:41:27.610Z,1.90
2023-05-10T05:42:27.693Z,4.10
2023-05-10T05:43:27.671Z,1.60
2023-05-10T05:44:27.570Z,2.70
2023-05-10T05:45:27.563Z,2.10
2023-05-10T05:46:27.603Z,1.50
2023-05-10T05:47:27.549Z,3.80
2023-05-10T05:48:27.612Z,2.10
2023-05-10T05:49:27.517Z,2.00
2023-05-10T05:50:28.233Z,3.10
2023-05-10T05:51:27.510Z,3.20
2023-05-10T05:52:27.525Z,1.60
2023-05-10T05:53:28.504Z,2.90
2023-05-10T05:54:27.518Z,1.40
2023-05-10T05:55:27.452Z,1.50
2023-05-10T05:56:28.428Z,2.70
2023-05-10T05:57:27.441Z,1.80
2023-05-10T05:58:27.418Z,2.00
2023-05-10T05:59:28.134Z,3.00
2023-05-10T06:00:27.405Z,2.50
2023-05-10T06:01:27.425Z,2.70
2023-05-10T06:02:27.415Z,2.10
2023-05-10T06:03:27.547Z,1.20
2023-05-10T06:04:27.473Z,2.00
2023-05-10T06:05:27.362Z,2.10
2023-05-10T06:06:27.331Z,2.40
2023-05-10T06:07:27.313Z,0.90
2023-05-10T06:08:27.331Z,1.00
2023-05-10T06:09:27.320Z,2.80
2023-05-10T06:10:27.316Z,2.80
2023-05-10T06:11:27.293Z,0.90
2023-05-10T06:12:27.490Z,1.00
2023-05-10T06:13:27.318Z,1.20
2023-05-10T06:14:27.236Z,1.30
2023-05-10T06:15:27.333Z,0.80
2023-05-10T06:16:27.238Z,1.80
2023-05-10T06:17:27.320Z,1.40
2023-05-10T06:18:27.220Z,0.90
2023-05-10T06:19:27.192Z,1.70
2023-05-10T06:20:27.371Z,1.70
2023-05-10T06:21:27.177Z,1.80
2023-05-10T06:22:27.160Z,2.50
2023-05-10T06:23:27.120Z,1.90
2023-05-10T06:24:27.119Z,1.70
2023-05-10T06:25:27.166Z,1.90
2023-05-10T06:26:27.162Z,1.10
2023-05-10T06:27:27.093Z,1.10
2023-05-10T06:28:27.124Z,2.00
2023-05-10T06:29:27.072Z,2.10
2023-05-10T06:30:27.070Z,1.20
2023-05-10T06:31:27.227Z,1.10
2023-05-10T06:32:27.043Z,1.30
2023-05-10T06:33:27.068Z,1.20
2023-05-10T06:34:27.008Z,1.10
2023-05-10T06:35:27.011Z,1.20
2023-05-10T06:36:27.012Z,1.30
2023-05-10T06:37:27.060Z,1.50
2023-05-10T06:38:26.945Z,1.00
2023-05-10T06:39:26.950Z,3.50
2023-05-10T06:40:26.938Z,2.30
2023-05-10T06:41:26.975Z,1.20
2023-05-10T06:42:26.966Z,1.20
2023-05-10T06:43:26.929Z,1.60
2023-05-10T06:44:26.925Z,1.30
2023-05-10T06:45:26.886Z,1.30
2023-05-10T06:46:26.959Z,3.10
2023-05-10T06:47:26.968Z,1.00
2023-05-10T06:48:26.857Z,1.30
2023-05-10T06:49:26.851Z,1.80
2023-05-10T06:50:26.789Z,1.50
2023-05-10T06:51:26.795Z,1.70
2023-05-10T06:52:26.856Z,1.80
2023-05-10T06:53:26.805Z,1.00
2023-05-10T06:54:26.752Z,1.40
2023-05-10T06:55:26.748Z,1.90
2023-05-10T06:56:26.774Z,3.40
2023-05-10T06:57:31.867Z,2.60
2023-05-10T06:58:27.753Z,1.30
2023-05-10T06:59:26.850Z,2.20
2023-05-10T07:00:26.731Z,2.00
2023-05-10T07:01:26.764Z,2.30
2023-05-10T07:02:26.752Z,1.40
2023-05-10T07:03:26.684Z,1.70
2023-05-10T07:04:26.728Z,1.20
2023-05-10T07:05:26.712Z,2.30
2023-05-10T07:06:33.452Z,1.30
2023-05-10T07:07:26.610Z,1.40
2023-05-10T07:08:26.663Z,2.00
2023-05-10T07:09:26.592Z,2.60
2023-05-10T07:10:26.592Z,1.10
2023-05-10T07:11:26.591Z,1.30
2023-05-10T07:12:26.701Z,1.70
2023-05-10T07:13:26.665Z,1.80
2023-05-10T07:14:26.604Z,1.70
2023-05-10T07:15:26.534Z,1.90
2023-05-10T07:16:26.554Z,1.70
2023-05-10T07:17:26.641Z,1.10
2023-05-10T07:18:26.520Z,1.80
2023-05-10T07:19:26.552Z,1.80
2023-05-10T07:20:26.463Z,1.40
2023-05-10T07:21:26.459Z,1.10
2023-05-10T07:22:26.478Z,2.00
2023-05-10T07:23:26.420Z,2.40
2023-05-10T07:24:26.493Z,1.40
2023-05-10T07:25:26.400Z,2.60
2023-05-10T07:26:26.405Z,1.30
2023-05-10T07:27:26.370Z,3.00
2023-05-10T07:28:26.438Z,1.30
2023-05-10T07:29:26.407Z,1.10
2023-05-10T07:30:26.401Z,1.40
2023-05-10T07:31:26.365Z,1.60
2023-05-10T07:32:26.422Z,1.20
2023-05-10T07:33:26.327Z,1.00
2023-05-10T07:34:26.379Z,1.80
2023-05-10T07:35:26.312Z,1.30
2023-05-10T07:36:26.324Z,2.70
2023-05-10T07:37:26.269Z,1.40
2023-05-10T07:38:26.291Z,1.30
2023-05-10T07:39:27.956Z,1.40
2023-05-10T07:40:26.311Z,2.30
2023-05-10T07:41:26.254Z,1.70
2023-05-10T07:42:26.214Z,3.00
2023-05-10T07:43:26.263Z,2.90
2023-05-10T07:44:26.311Z,2.70
2023-05-10T07:45:26.234Z,1.70
2023-05-10T07:46:26.320Z,2.90
2023-05-10T07:47:26.227Z,1.70
2023-05-10T07:48:26.194Z,1.90
2023-05-10T07:49:26.344Z,1.50
2023-05-10T07:50:26.163Z,2.00
2023-05-10T07:51:26.164Z,1.90
2023-05-10T07:52:26.122Z,1.80
2023-05-10T07:53:26.163Z,1.50
2023-05-10T07:54:26.073Z,1.70
2023-05-10T07:55:26.103Z,1.70
2023-05-10T07:56:26.124Z,1.60
2023-05-10T07:57:26.074Z,2.40
2023-05-10T07:58:26.207Z,1.70
2023-05-10T07:59:26.007Z,2.10
2023-05-10T08:00:26.035Z,1.70
2023-05-10T08:01:26.039Z,1.60
2023-05-10T08:02:26.123Z,2.10
2023-05-10T08:03:26.068Z,1.60
2023-05-10T08:04:26.040Z,1.60
2023-05-10T08:05:25.964Z,3.90
2023-05-10T08:06:25.964Z,1.90
2023-05-10T08:07:25.952Z,2.80
2023-05-10T08:08:25.936Z,1.70
2023-05-10T08:09:25.967Z,1.90
2023-05-10T08:10:25.932Z,3.20
2023-05-10T08:11:26.075Z,1.70
2023-05-10T08:12:25.954Z,1.80
2023-05-10T08:13:25.881Z,3.00
2023-05-10T08:14:25.907Z,1.90
2023-05-10T08:15:25.856Z,2.10
2023-05-10T08:16:25.945Z,1.90
2023-05-10T08:17:25.948Z,2.00
2023-05-10T08:18:25.877Z,1.80
2023-05-10T08:19:25.808Z,2.00
2023-05-10T08:20:25.865Z,2.00
2023-05-10T08:21:25.785Z,2.20
2023-05-10T08:22:25.787Z,2.00
2023-05-10T08:23:25.849Z,2.30
2023-05-10T08:24:25.787Z,2.40
2023-05-10T08:25:25.745Z,3.30
2023-05-10T08:26:25.767Z,2.10
2023-05-10T08:27:25.804Z,3.40
2023-05-10T08:28:25.770Z,3.00
2023-05-10T08:29:26.804Z,2.20
2023-05-10T08:30:25.693Z,2.30
2023-05-10T08:31:25.691Z,2.40
2023-05-10T08:32:25.732Z,3.20
2023-05-10T08:33:25.727Z,2.50
2023-05-10T08:34:25.799Z,2.70
2023-05-10T08:35:25.713Z,3.00
2023-05-10T08:36:25.688Z,3.00
2023-05-10T08:37:25.646Z,3.70
2023-05-10T08:38:25.670Z,3.50
2023-05-10T08:39:30.253Z,2.50
2023-05-10T08:40:26.640Z,2.50
2023-05-10T08:41:25.617Z,3.20
2023-05-10T08:42:25.573Z,2.80
2023-05-10T08:43:25.698Z,3.10
2023-05-10T08:44:26.112Z,2.90
2023-05-10T08:45:25.644Z,3.80
2023-05-10T08:46:25.599Z,2.80
2023-05-10T08:47:25.530Z,3.60
2023-05-10T08:48:25.501Z,3.20
2023-05-10T08:49:25.505Z,3.00
2023-05-10T08:50:25.541Z,3.90
2023-05-10T08:51:25.504Z,2.80
2023-05-10T08:52:25.468Z,3.90
2023-05-10T08:53:25.909Z,3.20
2023-05-10T08:54:25.460Z,2.50
2023-05-10T08:55:25.488Z,2.60
2023-05-10T08:56:25.432Z,2.40
2023-05-10T08:57:26.434Z,2.70
2023-05-10T08:58:25.407Z,2.60
2023-05-10T08:59:25.422Z,3.00
2023-05-10T09:00:25.376Z,3.80
2023-05-10T09:01:25.612Z,2.40
2023-05-10T09:02:25.363Z,2.80
2023-05-10T09:03:25.341Z,2.90
2023-05-10T09:04:25.389Z,2.30
2023-05-10T09:05:25.348Z,3.30
2023-05-10T09:06:25.345Z,2.60
2023-05-10T09:07:25.291Z,2.60
2023-05-10T09:08:25.262Z,2.80
2023-05-10T09:09:25.276Z,3.20
2023-05-10T09:10:25.316Z,2.40
2023-05-10T09:11:25.296Z,2.50
2023-05-10T09:12:25.223Z,2.30
2023-05-10T09:13:25.277Z,4.00
2023-05-10T09:14:25.220Z,2.90
2023-05-10T09:15:25.251Z,4.20
2023-05-10T09:16:25.246Z,2.60
2023-05-10T09:17:25.296Z,2.30
2023-05-10T09:18:27.283Z,2.50
2023-05-10T09:19:25.177Z,2.80
2023-05-10T09:20:25.159Z,2.50
2023-05-10T09:21:25.157Z,2.90
2023-05-10T09:22:25.156Z,2.20
2023-05-10T09:23:25.117Z,3.00
2023-05-10T09:24:25.147Z,2.80
2023-05-10T09:25:25.092Z,2.70
2023-05-10T09:26:25.096Z,5.00
2023-05-10T09:27:25.174Z,4.30
2023-05-10T09:28:25.074Z,3.20
2023-05-10T09:29:25.108Z,3.70
2023-05-10T09:30:25.085Z,2.50
2023-05-10T09:31:25.052Z,3.10
2023-05-10T09:32:25.073Z,5.10
2023-05-10T09:33:25.024Z,2.30
2023-05-10T09:34:25.004Z,2.70
2023-05-10T09:35:27.103Z,2.70
2023-05-10T09:36:24.954Z,3.50
2023-05-10T09:37:24.937Z,2.50
2023-05-10T09:38:24.993Z,3.40
2023-05-10T09:39:25.723Z,2.80
2023-05-10T09:40:24.880Z,3.70
2023-05-10T09:41:25.478Z,2.90
2023-05-10T09:42:24.961Z,3.90
2023-05-10T09:43:24.884Z,4.50
2023-05-10T09:44:24.845Z,4.50
2023-05-10T09:45:24.895Z,3.60
2023-05-10T09:46:24.913Z,3.00
2023-05-10T09:47:24.865Z,2.50
2023-05-10T09:48:25.636Z,3.70
2023-05-10T09:49:24.824Z,3.10
2023-05-10T09:50:24.827Z,4.50
2023-05-10T09:51:24.740Z,2.70
2023-05-10T09:52:24.754Z,3.90
2023-05-10T09:53:24.775Z,2.80
2023-05-10T09:54:24.770Z,5.20
2023-05-10T09:55:24.828Z,4.80
2023-05-10T09:56:24.675Z,4.40
2023-05-10T09:57:26.697Z,3.00
2023-05-10T09:58:24.679Z,3.80
2023-05-10T09:59:24.697Z,4.20
2023-05-10T10:00:24.687Z,4.60
2023-05-10T10:01:24.638Z,3.90
2023-05-10T10:02:24.645Z,3.40
2023-05-10T10:03:24.593Z,3.50
2023-05-10T10:04:24.687Z,3.70
2023-05-10T10:05:26.079Z,4.20
2023-05-10T10:06:30.165Z,3.90
2023-05-10T10:07:24.560Z,3.70
2023-05-10T10:08:24.562Z,3.50
2023-05-10T10:09:24.588Z,3.60
2023-05-10T10:10:24.529Z,4.30
2023-05-10T10:11:24.981Z,3.60
2023-05-10T10:12:24.496Z,3.70
2023-05-10T10:13:24.493Z,4.70
2023-05-10T10:14:24.488Z,3.70
2023-05-10T10:15:24.548Z,4.20
2023-05-10T10:16:24.466Z,4.50
2023-05-10T10:17:24.470Z,6.00
2023-05-10T10:18:24.495Z,4.40
2023-05-10T10:19:24.465Z,4.80
2023-05-10T10:20:24.411Z,5.50
2023-05-10T10:21:24.382Z,3.90
2023-05-10T10:22:24.497Z,4.10
2023-05-10T10:23:24.387Z,4.50
2023-05-10T10:24:24.352Z,4.70
2023-05-10T10:25:24.371Z,4.90
2023-05-10T10:26:24.316Z,5.00
2023-05-10T10:27:24.322Z,4.20
2023-05-10T10:28:25.388Z,5.70
2023-05-10T10:29:24.341Z,5.30
2023-05-10T10:30:24.324Z,6.30
2023-05-10T10:31:24.298Z,5.80
2023-05-10T10:32:24.273Z,4.40
2023-05-10T10:33:28.486Z,4.50
2023-05-10T10:34:24.225Z,4.20
2023-05-10T10:35:24.194Z,6.20
2023-05-10T10:36:24.280Z,5.20
2023-05-10T10:37:24.180Z,4.50
2023-05-10T10:38:24.150Z,4.70
2023-05-10T10:39:24.134Z,4.90
2023-05-10T10:40:24.177Z,6.00
2023-05-10T10:41:24.199Z,5.30
2023-05-10T10:42:24.161Z,5.90
2023-05-10T10:43:25.372Z,4.80
2023-05-10T10:44:24.132Z,4.10
2023-05-10T10:45:24.131Z,4.50
2023-05-10T10:46:24.085Z,4.30
2023-05-10T10:47:24.243Z,5.00
2023-05-10T10:48:24.064Z,4.70
2023-05-10T10:49:24.036Z,5.60
2023-05-10T10:50:24.056Z,4.40
2023-05-10T10:51:24.046Z,4.70
2023-05-10T10:52:24.030Z,5.50
2023-05-10T10:53:24.047Z,5.10
2023-05-10T10:54:23.969Z,4.90
2023-05-10T10:55:23.993Z,4.70
2023-05-10T10:56:23.998Z,5.70
2023-05-10T10:57:23.948Z,6.10
2023-05-10T10:58:23.949Z,4.90
2023-05-10T10:59:23.982Z,4.80
2023-05-10T11:00:23.963Z,5.10
2023-05-10T11:01:23.927Z,5.40
2023-05-10T11:02:23.876Z,5.30
2023-05-10T11:03:23.921Z,4.20
2023-05-10T11:04:23.915Z,5.00
2023-05-10T11:05:23.828Z,6.10
2023-05-10T11:06:23.863Z,4.80
2023-05-10T11:07:23.840Z,6.00
2023-05-10T11:08:23.830Z,5.10
2023-05-10T11:09:23.796Z,6.60
2023-05-10T11:10:23.884Z,5.50
2023-05-10T11:11:23.756Z,6.60
2023-05-10T11:12:23.843Z,5.60
2023-05-10T11:13:23.798Z,5.50
2023-05-10T11:14:23.764Z,4.80
2023-05-10T11:15:23.768Z,5.10
2023-05-10T11:16:23.730Z,6.10
2023-05-10T11:17:23.737Z,5.00
2023-05-10T11:18:23.742Z,4.80
2023-05-10T11:19:23.708Z,6.00
2023-05-10T11:20:23.650Z,4.80
2023-05-10T11:21:23.628Z,4.60
2023-05-10T11:22:23.700Z,5.40
2023-05-10T11:23:23.738Z,5.90
2023-05-10T11:24:23.608Z,7.60
2023-05-10T11:25:23.584Z,6.20
2023-05-10T11:26:23.594Z,6.00
2023-05-10T11:27:23.557Z,6.10
2023-05-10T11:28:23.637Z,7.60
2023-05-10T11:29:25.115Z,6.20
2023-05-10T11:30:24.545Z,6.00
2023-05-10T11:31:23.628Z,7.00
2023-05-10T11:32:23.555Z,7.10
2023-05-10T11:33:23.512Z,5.60
2023-05-10T11:34:23.497Z,6.60
2023-05-10T11:35:23.465Z,6.00
2023-05-10T11:36:23.453Z,6.60
2023-05-10T11:37:23.458Z,5.70
2023-05-10T11:38:23.844Z,6.50
2023-05-10T11:39:23.460Z,5.80
2023-05-10T11:40:23.449Z,6.30
2023-05-10T11:41:23.399Z,6.20
2023-05-10T11:42:23.422Z,5.80
2023-05-10T11:43:23.434Z,7.00
2023-05-10T11:44:23.403Z,6.70
2023-05-10T11:45:23.360Z,5.60
2023-05-10T11:46:23.337Z,7.80
2023-05-10T11:47:23.728Z,6.70
2023-05-10T11:48:23.304Z,5.50
2023-05-10T11:49:23.335Z,5.60
2023-05-10T11:50:23.290Z,6.20
2023-05-10T11:51:23.294Z,6.40
2023-05-10T11:52:23.265Z,8.20
2023-05-10T11:53:24.803Z,6.90
2023-05-10T11:54:23.213Z,7.50
2023-05-10T11:55:23.268Z,6.70
2023-05-10T11:56:23.241Z,5.20
2023-05-10T11:57:23.196Z,5.50
2023-05-10T11:58:23.187Z,6.40
2023-05-10T11:59:23.171Z,7.40
2023-05-10T12:00:23.190Z,5.40
2023-05-10T12:01:23.150Z,7.40
2023-05-10T12:02:23.296Z,5.80
2023-05-10T12:03:23.242Z,6.60
2023-05-10T12:04:23.237Z,6.10
2023-05-10T12:05:23.182Z,6.10
2023-05-10T12:06:23.192Z,7.20
2023-05-10T12:07:23.102Z,6.20
2023-05-10T12:08:23.151Z,6.70
2023-05-10T12:09:39.421Z,6.00
2023-05-10T12:10:23.055Z,7.70
2023-05-10T12:11:23.164Z,8.20
2023-05-10T12:12:23.089Z,8.90
2023-05-10T12:13:23.091Z,8.90
2023-05-10T12:14:23.021Z,11.70
2023-05-10T12:15:23.072Z,14.00
2023-05-10T12:16:23.036Z,11.90
2023-05-10T12:17:23.092Z,9.70
2023-05-10T12:18:23.015Z,9.50
2023-05-10T12:19:22.952Z,10.10
2023-05-10T12:20:22.932Z,11.40
2023-05-10T12:21:22.926Z,10.60
2023-05-10T12:22:22.956Z,10.50
2023-05-10T12:23:22.941Z,10.20
2023-05-10T12:24:22.908Z,10.50
2023-05-10T12:25:22.901Z,10.20
2023-05-10T12:26:22.890Z,10.70
2023-05-10T12:27:22.926Z,10.60
2023-05-10T12:28:22.851Z,10.50
2023-05-10T12:29:22.909Z,11.30
2023-05-10T12:30:22.878Z,10.90
2023-05-10T12:31:22.863Z,11.50
2023-05-10T12:32:22.840Z,8.80
2023-05-10T12:33:23.535Z,11.80
2023-05-10T12:34:22.853Z,10.50
2023-05-10T12:35:22.782Z,12.40
2023-05-10T12:36:22.763Z,9.20
2023-05-10T12:37:22.775Z,10.70
2023-05-10T12:38:22.896Z,10.40
2023-05-10T12:39:24.204Z,9.00
2023-05-10T12:40:23.526Z,8.30
2023-05-10T12:41:22.893Z,7.80
2023-05-10T12:42:23.420Z,8.00
2023-05-10T12:43:22.720Z,8.50
2023-05-10T12:44:22.742Z,6.70
2023-05-10T12:45:22.677Z,9.00
2023-05-10T12:46:22.737Z,8.40
2023-05-10T12:47:22.662Z,7.60
2023-05-10T12:48:22.652Z,8.40
2023-05-10T12:49:22.714Z,8.30
2023-05-10T12:50:22.686Z,7.80
2023-05-10T12:51:22.677Z,9.10
2023-05-10T12:52:22.611Z,9.10
2023-05-10T12:53:22.595Z,6.50
2023-05-10T12:54:23.620Z,7.80
2023-05-10T12:55:23.566Z,7.40
2023-05-10T12:56:22.560Z,4.90
2023-05-10T12:57:22.620Z,5.80
2023-05-10T12:59:23.591Z,4.70
2023-05-10T13:00:22.583Z,4.60
2023-05-10T13:01:22.672Z,5.60
2023-05-10T13:02:22.522Z,6.70
2023-05-10T13:03:22.492Z,6.30
2023-05-10T13:04:22.495Z,5.10
2023-05-10T13:05:22.536Z,5.10
2023-05-10T13:06:22.439Z,5.00
2023-05-10T13:07:22.440Z,6.50
2023-05-10T13:08:22.402Z,6.00
2023-05-10T13:09:23.344Z,6.10
2023-05-10T13:10:22.423Z,5.40
2023-05-10T13:11:22.547Z,4.70
2023-05-10T13:12:22.609Z,6.40